Time;durP1;ratioP1;P1;durP2;ratioP2;P2;SDS_P1;SDS_P2;PMS_P1;PMS_P2;Temp;Humidity;BMP_temperature;BMP_pressure;BME280_temperature;BME280_humidity;BME280_pressure;Samples;Min_cycle;Max_cycle;Signal;HPM_P1;HPM_P2
2021/04/29 00:00:18;;;;;;;31.53;16.63;;;;;;;8.17;40.68;98314.87;127115;1101;100718;-73
2021/04/29 00:03:12;;;;;;;33.60;17.00;;;;;;;8.15;41.03;98313.31;126367;1101;102994;-72
2021/04/29 00:05:43;;;;;;;32.70;16.77;;;;;;;8.08;41.09;98309.42;126077;1101;103140;-74
2021/04/29 00:08:11;;;;;;;32.57;16.03;;;;;;;8.01;40.58;98316.99;125799;1096;103160;-75
2021/04/29 00:10:38;;;;;;;33.70;18.43;;;;;;;7.99;40.89;98314.44;125714;1101;103132;-74
2021/04/29 00:13:05;;;;;;;30.47;15.60;;;;;;;7.96;40.75;98317.31;125727;1096;103171;-74
2021/04/29 00:15:33;;;;;;;34.00;16.90;;;;;;;7.96;41.20;98317.31;125707;1101;103182;-73
2021/04/29 00:18:00;;;;;;;35.93;18.10;;;;;;;7.92;41.12;98315.88;125616;1096;102984;-73
2021/04/29 00:20:28;;;;;;;33.23;17.70;;;;;;;7.88;41.17;98312.59;127818;1101;102487;-74
2021/04/29 00:22:55;;;;;;;33.80;16.90;;;;;;;7.88;41.25;98312.59;127659;1104;100721;-73
2021/04/29 00:25:23;;;;;;;33.10;16.95;;;;;;;7.84;41.58;98311.13;126557;1101;103012;-73
2021/04/29 00:27:50;;;;;;;34.07;16.77;;;;;;;7.80;41.07;98316.77;126785;1101;102981;-73
2021/04/29 00:30:19;;;;;;;30.90;16.70;;;;;;;7.69;41.45;98313.10;125687;1104;101965;-74
2021/04/29 00:32:47;;;;;;;32.30;16.77;;;;;;;7.68;41.43;98310.58;125686;1097;104500;-74
2021/04/29 00:35:15;;;;;;;38.60;18.13;;;;;;;7.57;41.36;98309.55;125928;1096;103123;-74
2021/04/29 00:37:47;;;;;;;33.57;17.50;;;;;;;7.44;41.37;98311.38;126009;1101;103152;-75
2021/04/29 00:40:18;;;;;;;31.87;17.60;;;;;;;7.44;41.44;98300.80;126013;1101;103152;-74
2021/04/29 00:42:45;;;;;;;33.80;17.30;;;;;;;7.44;41.85;98301.66;125965;1101;103205;-75
2021/04/29 00:45:13;;;;;;;31.70;18.17;;;;;;;7.45;41.95;98307.78;125648;1104;103100;-77
2021/04/29 00:47:51;;;;;;;33.57;16.97;;;;;;;7.44;42.17;98306.09;125994;1101;103445;-74
2021/04/29 00:50:26;;;;;;;32.55;17.60;;;;;;;7.45;41.94;98302.49;125657;1099;103095;-76
2021/04/29 00:52:54;;;;;;;34.60;17.57;;;;;;;7.47;42.04;98299.75;125646;1100;103022;-73
2021/04/29 00:55:21;;;;;;;33.87;18.33;;;;;;;7.47;42.57;98297.11;125702;1104;103081;-74
2021/04/29 00:57:52;;;;;;;33.60;18.23;;;;;;;7.47;42.45;98295.29;125659;1104;103082;-72
2021/04/29 01:00:22;;;;;;;33.07;17.73;;;;;;;7.47;42.26;98297.11;125579;1104;103086;-73
2021/04/29 01:03:24;;;;;;;30.57;17.40;;;;;;;7.45;42.25;98297.20;125605;1104;103086;-73
2021/04/29 01:05:55;;;;;;;34.53;18.90;;;;;;;7.40;42.34;98297.55;125613;1104;103082;-72
2021/04/29 01:08:35;;;;;;;35.07;18.53;;;;;;;7.38;42.55;98294.16;125634;1104;103002;-73
2021/04/29 01:11:36;;;;;;;32.53;17.43;;;;;;;7.37;42.55;98295.12;126276;1104;103229;-73
2021/04/29 01:14:10;;;;;;;32.00;16.90;;;;;;;7.30;42.67;98286.78;125627;1104;102988;-74
2021/04/29 01:16:39;;;;;;;38.07;16.93;;;;;;;7.29;42.75;98297.46;125646;1104;102993;-73
2021/04/29 01:19:13;;;;;;;32.37;16.07;;;;;;;7.19;42.70;98293.77;125603;1104;102990;-74
2021/04/29 01:21:45;;;;;;;30.80;15.63;;;;;;;7.05;42.63;98294.76;125614;1104;103023;-73
2021/04/29 01:24:29;;;;;;;32.73;17.40;;;;;;;6.94;42.46;98295.52;125642;1100;103101;-74
2021/04/29 01:27:02;;;;;;;29.30;16.23;;;;;;;6.80;42.64;98299.14;126450;1104;101845;-73
2021/04/29 01:29:33;;;;;;;31.55;16.75;;;;;;;6.63;42.47;98295.85;125604;1104;102987;-72
2021/04/29 01:32:02;;;;;;;32.05;16.80;;;;;;;6.52;42.58;98293.13;125592;1099;103089;-72
2021/04/29 01:34:37;;;;;;;32.73;16.83;;;;;;;6.44;42.86;98298.91;126607;1104;102997;-72
2021/04/29 01:37:08;;;;;;;29.63;15.13;;;;;;;6.34;42.81;98300.48;125563;1104;103012;-73
2021/04/29 01:39:41;;;;;;;32.27;16.40;;;;;;;6.26;42.89;98298.36;125591;1104;103016;-74
2021/04/29 01:42:09;;;;;;;29.67;16.07;;;;;;;6.23;43.09;98303.84;125626;1104;103055;-75
2021/04/29 01:44:40;;;;;;;34.80;17.13;;;;;;;6.27;43.33;98300.05;125609;1104;102987;-74
2021/04/29 01:47:11;;;;;;;27.80;15.50;;;;;;;6.22;43.22;98299.52;125611;1104;103011;-73
2021/04/29 01:49:42;;;;;;;36.67;16.67;;;;;;;6.18;43.28;98298.03;125590;1104;103528;-73
2021/04/29 01:52:13;;;;;;;29.40;15.40;;;;;;;6.14;43.45;98300.04;125523;1104;103143;-74
2021/04/29 01:54:44;;;;;;;31.80;17.03;;;;;;;6.10;43.74;98293.27;125560;1104;102984;-73
2021/04/29 01:57:12;;;;;;;30.97;15.80;;;;;;;6.11;43.71;98285.23;125581;1104;103062;-73
2021/04/29 01:59:40;;;;;;;31.00;16.07;;;;;;;6.07;43.69;98289.05;125545;1104;103012;-73
2021/04/29 02:02:10;;;;;;;26.40;14.83;;;;;;;5.99;43.76;98293.96;125563;1104;102806;-73
2021/04/29 02:04:39;;;;;;;30.07;14.97;;;;;;;5.94;43.81;98290.77;125570;1104;102981;-73
2021/04/29 02:07:06;;;;;;;30.73;16.87;;;;;;;5.91;43.85;98290.97;125584;1104;103145;-73
2021/04/29 02:09:38;;;;;;;30.87;16.17;;;;;;;5.93;44.26;98289.08;125618;1104;103099;-74
2021/04/29 02:12:10;;;;;;;30.03;15.77;;;;;;;5.94;44.52;98293.41;125654;1104;103016;-73
2021/04/29 02:15:08;;;;;;;29.40;15.63;;;;;;;6.00;44.33;98289.51;125661;1104;103005;-74
2021/04/29 02:17:46;;;;;;;30.07;17.33;;;;;;;6.05;44.64;98293.59;125478;1098;102987;-73
2021/04/29 02:20:15;;;;;;;31.50;17.17;;;;;;;6.10;44.82;98290.63;125550;1104;103059;-73
2021/04/29 02:22:47;;;;;;;29.97;16.30;;;;;;;6.13;44.60;98290.42;126432;1099;102997;-75
2021/04/29 02:25:16;;;;;;;30.80;16.27;;;;;;;6.16;44.82;98290.22;125586;1104;102990;-71
2021/04/29 02:27:43;;;;;;;31.53;17.63;;;;;;;6.17;44.85;98285.77;125624;1099;103173;-74
2021/04/29 02:30:15;;;;;;;30.43;15.90;;;;;;;6.19;45.05;98289.16;125593;1097;103123;-73
2021/04/29 02:32:47;;;;;;;31.60;15.77;;;;;;;6.20;44.92;98283.79;125548;1100;103022;-74
2021/04/29 02:35:18;;;;;;;27.70;15.03;;;;;;;6.20;45.27;98286.43;125594;1104;103089;-73
2021/04/29 02:37:51;;;;;;;29.73;15.57;;;;;;;6.21;44.94;98282.84;125561;1104;103086;-72
2021/04/29 02:40:23;;;;;;;30.83;16.40;;;;;;;6.23;45.18;98288.00;125573;1104;103102;-73
2021/04/29 02:43:17;;;;;;;30.07;16.03;;;;;;;6.23;45.14;98280.08;125590;1104;103011;-74
2021/04/29 02:45:49;;;;;;;28.13;15.53;;;;;;;6.20;45.29;98275.87;125551;1104;103005;-73
2021/04/29 02:48:20;;;;;;;30.47;16.43;;;;;;;6.20;45.40;98280.28;125581;1104;103059;-72
2021/04/29 02:50:47;;;;;;;32.20;15.80;;;;;;;6.20;45.37;98277.64;125573;1104;102987;-73
2021/04/29 02:53:19;;;;;;;29.37;16.07;;;;;;;6.20;45.28;98275.87;125560;1104;103011;-73
2021/04/29 02:55:50;;;;;;;29.25;15.45;;;;;;;6.17;45.59;98278.71;125569;1104;103011;-71
2021/04/29 02:58:18;;;;;;;32.20;16.83;;;;;;;6.16;45.65;98277.02;125597;1104;103138;-74
2021/04/29 03:00:51;;;;;;;27.07;15.53;;;;;;;6.17;45.43;98273.43;125555;1104;103033;-73
2021/04/29 03:03:18;;;;;;;30.38;15.93;;;;;;;6.19;45.85;98270.67;125581;1105;102987;-73
2021/04/29 03:05:46;;;;;;;29.13;15.67;;;;;;;6.11;45.62;98271.20;125583;1104;103017;-72
2021/04/29 03:08:13;;;;;;;28.17;15.67;;;;;;;6.00;45.40;98281.59;125555;1104;103149;-72
2021/04/29 03:10:41;;;;;;;29.13;15.60;;;;;;;5.96;45.63;98281.80;125609;1104;103073;-73
2021/04/29 03:13:08;;;;;;;27.80;16.10;;;;;;;5.98;45.90;98276.42;125501;1104;103112;-73
2021/04/29 03:15:35;;;;;;;29.83;15.90;;;;;;;6.01;46.04;98276.26;125568;1104;103014;-74
2021/04/29 03:18:03;;;;;;;31.37;15.23;;;;;;;6.05;46.11;98272.47;125566;1104;103246;-74
2021/04/29 03:20:42;;;;;;;27.60;14.15;;;;;;;6.06;46.08;98281.22;125542;1104;103076;-71
2021/04/29 03:23:13;;;;;;;30.73;15.47;;;;;;;6.02;46.28;98275.31;125628;1097;103014;-75
2021/04/29 03:25:40;;;;;;;32.37;17.23;;;;;;;6.04;46.30;98273.41;125649;1104;103145;-73
2021/04/29 03:28:07;;;;;;;28.87;15.20;;;;;;;5.98;45.91;98284.34;125633;1104;103096;-74
2021/04/29 03:30:35;;;;;;;25.27;14.03;;;;;;;5.83;45.95;98278.30;125572;1104;103126;-75
2021/04/29 03:33:06;;;;;;;30.17;15.80;;;;;;;5.81;46.08;98283.66;125525;1104;103059;-73
2021/04/29 03:35:34;;;;;;;31.87;16.20;;;;;;;5.85;46.47;98279.04;125708;1104;103216;-74
2021/04/29 03:38:02;;;;;;;31.70;17.10;;;;;;;5.90;46.55;98273.44;125610;1104;103102;-72
2021/04/29 03:40:29;;;;;;;27.87;15.97;;;;;;;5.95;46.59;98276.63;125624;1104;103024;-72
2021/04/29 03:43:00;;;;;;;29.63;15.63;;;;;;;5.98;46.58;98275.56;125577;1097;103176;-74
2021/04/29 03:45:28;;;;;;;31.07;16.50;;;;;;;6.02;46.73;98285.00;125518;1100;103049;-73
2021/04/29 03:47:55;;;;;;;28.23;16.70;;;;;;;6.05;46.73;98284.80;125528;1104;102984;-71
2021/04/29 03:50:28;;;;;;;32.00;18.33;;;;;;;6.07;46.62;98281.13;125677;1096;103467;-71
2021/04/29 03:52:55;;;;;;;32.87;18.00;;;;;;;6.10;47.03;98280.06;125560;1096;103419;-71
2021/04/29 03:55:23;;;;;;;30.60;18.07;;;;;;;6.11;46.98;98285.23;125606;1104;103106;-71
2021/04/29 03:57:50;;;;;;;32.85;18.15;;;;;;;6.13;46.96;98284.28;125539;1104;103066;-72
2021/04/29 04:00:18;;;;;;;32.23;18.00;;;;;;;6.17;47.03;98286.63;125523;1104;103505;-73
2021/04/29 04:02:45;;;;;;;31.13;17.47;;;;;;;6.20;47.09;98288.20;125501;1105;103225;-72
2021/04/29 04:05:13;;;;;;;29.63;17.20;;;;;;;6.22;47.12;98286.31;125619;1104;103006;-72
2021/04/29 04:07:40;;;;;;;28.10;16.15;;;;;;;6.25;47.21;98278.19;125583;1104;103110;-72
2021/04/29 04:10:08;;;;;;;29.30;16.17;;;;;;;6.27;47.23;98278.92;125543;1104;103013;-72
2021/04/29 04:12:36;;;;;;;32.70;16.90;;;;;;;6.29;47.19;98279.67;125583;1104;102983;-71
2021/04/29 04:15:07;;;;;;;29.47;15.80;;;;;;;6.31;47.49;98276.94;125582;1104;102990;-73
2021/04/29 04:17:35;;;;;;;30.40;17.30;;;;;;;6.30;47.27;98264.69;125590;1104;102990;-73
2021/04/29 04:20:24;;;;;;;30.17;17.10;;;;;;;6.33;47.40;98267.09;125525;1104;103210;-81
2021/04/29 04:22:52;;;;;;;31.40;16.57;;;;;;;6.38;47.51;98268.48;125572;1100;103084;-72
2021/04/29 04:25:19;;;;;;;32.40;18.13;;;;;;;6.45;47.64;98268.90;125563;1096;103469;-74
2021/04/29 04:27:46;;;;;;;32.97;18.17;;;;;;;6.51;47.62;98276.41;125607;1096;102988;-72
2021/04/29 04:30:14;;;;;;;32.70;18.73;;;;;;;6.57;47.83;98269.84;125588;1104;103085;-71
2021/04/29 04:32:42;;;;;;;34.13;19.17;;;;;;;6.62;47.71;98273.02;125525;1096;103186;-71
2021/04/29 04:35:16;;;;;;;34.20;18.97;;;;;;;6.68;47.88;98266.48;125511;1097;103055;-71
2021/04/29 04:37:47;;;;;;;37.37;19.63;;;;;;;6.75;47.94;98270.36;125584;1104;103005;-71
2021/04/29 04:40:15;;;;;;;28.87;17.57;;;;;;;6.79;48.00;98263.91;125622;1104;103024;-72
2021/04/29 04:42:44;;;;;;;30.73;17.33;;;;;;;6.87;47.93;98266.04;125639;1104;103110;-72
2021/04/29 04:45:15;;;;;;;31.85;17.10;;;;;;;6.93;48.00;98265.58;125558;1099;103112;-73
2021/04/29 04:47:42;;;;;;;34.10;19.23;;;;;;;6.97;48.08;98267.05;125577;1098;103464;-69
2021/04/29 04:50:13;;;;;;;30.87;18.07;;;;;;;7.01;48.21;98262.41;125558;1104;103053;-72
2021/04/29 04:52:40;;;;;;;30.83;17.73;;;;;;;7.06;48.15;98267.36;125615;1104;103059;-73
2021/04/29 04:55:10;;;;;;;32.60;18.93;;;;;;;7.11;48.42;98271.39;125593;1104;103084;-75
2021/04/29 04:57:38;;;;;;;35.00;21.03;;;;;;;7.15;48.43;98275.48;125532;1104;103157;-76
2021/04/29 05:00:06;;;;;;;35.90;19.70;;;;;;;7.20;48.40;98271.66;125507;1100;102996;-75
2021/04/29 05:02:39;;;;;;;34.75;20.00;;;;;;;7.29;48.58;98271.88;125505;1104;103078;-76
2021/04/29 05:05:09;;;;;;;38.93;18.67;;;;;;;7.40;48.73;98273.73;125562;1104;103614;-74
2021/04/29 05:07:37;;;;;;;33.67;19.47;;;;;;;7.50;48.47;98265.96;125584;1104;103080;-72
2021/04/29 05:10:04;;;;;;;39.20;21.73;;;;;;;7.61;48.53;98265.16;125551;1096;103121;-74
2021/04/29 05:12:32;;;;;;;36.17;21.23;;;;;;;7.70;48.58;98269.79;125566;1096;102979;-76
2021/04/29 05:14:59;;;;;;;37.70;21.97;;;;;;;7.80;48.56;98262.00;125505;1104;103078;-73
2021/04/29 05:17:28;;;;;;;37.83;22.10;;;;;;;7.91;48.81;98269.17;125541;1104;103686;-74
2021/04/29 05:19:58;;;;;;;36.43;22.50;;;;;;;7.98;48.84;98270.38;125601;1104;102990;-73
2021/04/29 05:22:26;;;;;;;34.53;20.23;;;;;;;8.02;48.74;98265.72;125496;1104;103213;-74
2021/04/29 05:24:54;;;;;;;35.40;20.30;;;;;;;8.08;48.85;98269.69;125468;1104;103016;-74
2021/04/29 05:27:21;;;;;;;35.03;21.20;;;;;;;8.12;49.23;98271.16;125559;1104;103007;-74
2021/04/29 05:29:49;;;;;;;37.93;21.87;;;;;;;8.16;49.14;98268.14;125616;1104;103441;-72
2021/04/29 05:32:16;;;;;;;47.90;26.93;;;;;;;8.21;49.41;98267.81;125610;1104;103014;-74
2021/04/29 05:34:43;;;;;;;68.03;36.97;;;;;;;8.27;49.25;98271.80;125473;1104;103129;-73
2021/04/29 05:37:11;;;;;;;58.30;35.40;;;;;;;8.31;49.36;98266.16;125851;1104;103150;-74
2021/04/29 05:39:38;;;;;;;39.40;22.93;;;;;;;8.38;49.29;98273.62;127056;1104;103086;-75
2021/04/29 05:42:06;;;;;;;37.53;19.97;;;;;;;8.44;49.05;98274.02;125573;1104;102989;-74
2021/04/29 05:44:38;;;;;;;38.73;20.20;;;;;;;8.49;49.57;98269.23;125610;1097;103003;-74
2021/04/29 05:47:05;;;;;;;35.80;20.50;;;;;;;8.58;49.35;98269.47;125615;1104;103123;-76
2021/04/29 05:49:45;;;;;;;35.35;18.30;;;;;;;8.65;49.28;98262.73;125586;1096;103219;-74
2021/04/29 05:52:18;;;;;;;32.90;18.50;;;;;;;8.75;49.27;98268.18;125695;1104;103083;-72
2021/04/29 05:54:50;;;;;;;27.98;13.65;;;;;;;8.83;49.23;98262.27;125683;1096;103090;-73
2021/04/29 05:57:18;;;;;;;34.07;17.83;;;;;;;8.90;49.79;98264.31;125631;1104;103093;-74
2021/04/29 05:59:45;;;;;;;31.67;18.07;;;;;;;8.98;49.46;98269.00;125602;1096;103125;-76
2021/04/29 06:02:23;;;;;;;38.53;19.60;;;;;;;9.07;49.93;98257.66;125504;1096;102991;-74
2021/04/29 06:04:51;;;;;;;33.80;20.10;;;;;;;9.17;50.06;98254.28;125950;1104;103212;-73
2021/04/29 06:07:18;;;;;;;35.83;18.97;;;;;;;9.28;49.89;98251.63;126536;1098;103065;-73
2021/04/29 06:09:46;;;;;;;31.10;18.07;;;;;;;9.37;49.99;98258.81;125582;1099;103013;-73
2021/04/29 06:12:19;;;;;;;31.65;18.35;;;;;;;9.46;50.07;98251.94;125556;1098;103486;-74
2021/04/29 06:14:46;;;;;;;34.07;17.07;;;;;;;9.56;49.80;98249.38;125580;1104;103084;-75
2021/04/29 06:17:14;;;;;;;34.53;17.43;;;;;;;9.67;49.92;98256.45;125575;1098;103139;-75
2021/04/29 06:19:46;;;;;;;47.83;30.83;;;;;;;9.78;49.98;98261.73;125625;1099;103010;-75
2021/04/29 06:22:15;;;;;;;48.17;27.93;;;;;;;9.91;49.78;98245.61;125557;1096;103460;-75
2021/04/29 06:24:42;;;;;;;34.67;19.40;;;;;;;10.07;50.09;98252.31;125573;1096;103103;-75
2021/04/29 06:27:12;;;;;;;32.70;16.63;;;;;;;10.22;50.19;98251.00;125673;1104;103047;-75
2021/04/29 06:29:39;;;;;;;29.05;16.45;;;;;;;10.39;50.20;98248.77;125623;1100;102984;-75
2021/04/29 06:32:06;;;;;;;30.80;16.07;;;;;;;10.57;50.09;98249.02;125579;1104;103008;-74
2021/04/29 06:34:34;;;;;;;35.63;18.77;;;;;;;10.75;50.12;98246.58;125655;1100;103171;-74
2021/04/29 06:37:06;;;;;;;32.70;17.63;;;;;;;10.91;50.39;98254.06;125626;1104;103079;-73
2021/04/29 06:39:34;;;;;;;33.13;17.65;;;;;;;11.01;50.29;98244.31;125570;1104;103051;-74
2021/04/29 06:42:01;;;;;;;29.90;16.35;;;;;;;11.13;50.38;98242.38;125632;1104;103077;-74
2021/04/29 06:44:30;;;;;;;33.07;16.97;;;;;;;11.25;50.29;98247.60;125567;1104;103062;-73
2021/04/29 06:47:02;;;;;;;31.55;16.38;;;;;;;11.37;50.50;98253.65;125646;1104;103009;-75
2021/04/29 06:49:32;;;;;;;32.33;17.83;;;;;;;11.40;50.50;98248.91;125638;1104;103130;-75
2021/04/29 06:52:04;;;;;;;37.63;21.37;;;;;;;11.51;50.63;98239.09;125566;1104;103149;-73
2021/04/29 06:54:31;;;;;;;36.45;20.50;;;;;;;11.65;50.54;98240.50;125554;1096;103067;-74
2021/04/29 06:56:59;;;;;;;32.90;16.77;;;;;;;11.78;50.59;98242.92;125598;1104;103460;-73
2021/04/29 06:59:28;;;;;;;28.30;13.73;;;;;;;11.87;50.65;98234.06;125836;1104;103557;-74
2021/04/29 07:02:01;;;;;;;25.77;12.73;;;;;;;11.86;50.50;98227.91;125564;1104;103119;-74
2021/04/29 07:04:48;;;;;;;27.77;13.43;;;;;;;11.85;50.65;98223.56;126122;1104;103215;-75
2021/04/29 07:07:15;;;;;;;29.43;12.53;;;;;;;11.87;50.71;98226.07;125967;1104;103062;-75
2021/04/29 07:09:43;;;;;;;26.27;12.83;;;;;;;11.89;50.67;98218.78;125607;1104;103013;-73
2021/04/29 07:12:11;;;;;;;24.63;12.83;;;;;;;11.93;50.97;98224.69;126840;1104;103116;-74
2021/04/29 07:14:38;;;;;;;27.23;12.23;;;;;;;11.98;51.11;98225.11;125658;1104;103142;-74
2021/04/29 07:17:05;;;;;;;28.53;12.40;;;;;;;12.09;51.43;98222.30;125566;1104;103134;-75
2021/04/29 07:19:35;;;;;;;27.87;11.33;;;;;;;12.25;51.45;98227.05;125624;1100;103053;-74
2021/04/29 07:22:07;;;;;;;27.30;11.23;;;;;;;12.53;51.39;98226.28;125652;1104;103126;-73
2021/04/29 07:24:43;;;;;;;23.73;9.55;;;;;;;12.86;51.73;98226.72;125610;1096;103086;-75
2021/04/29 07:27:15;;;;;;;22.70;9.17;;;;;;;13.11;51.81;98225.20;125614;1104;103086;-73
2021/04/29 07:29:42;;;;;;;21.97;9.53;;;;;;;13.31;52.80;98225.11;125572;1096;103005;-74
2021/04/29 07:32:10;;;;;;;22.17;9.97;;;;;;;13.42;52.47;98230.28;125581;1104;103544;-73
2021/04/29 07:34:41;;;;;;;19.27;8.53;;;;;;;13.52;52.75;98238.22;125585;1100;102984;-73
2021/04/29 07:37:11;;;;;;;19.60;8.23;;;;;;;13.59;52.41;98230.43;125615;1104;103148;-75
2021/04/29 07:39:43;;;;;;;20.87;9.17;;;;;;;13.66;52.44;98229.66;125560;1100;103141;-74
2021/04/29 07:42:10;;;;;;;22.13;8.30;;;;;;;13.75;52.53;98235.95;125542;1100;103183;-74
2021/04/29 07:44:43;;;;;;;19.10;8.70;;;;;;;13.88;52.39;98227.54;125599;1104;102959;-74
2021/04/29 07:47:10;;;;;;;18.23;7.93;;;;;;;13.94;52.73;98232.28;125541;1104;102985;-74
2021/04/29 07:49:40;;;;;;;21.60;8.00;;;;;;;14.05;52.82;98230.36;125582;1098;103009;-73
2021/04/29 07:52:07;;;;;;;19.47;8.80;;;;;;;14.17;52.59;98230.95;125581;1104;103216;-75
2021/04/29 07:54:35;;;;;;;20.07;8.47;;;;;;;14.54;52.96;98227.19;125526;1104;103038;-74
2021/04/29 07:57:12;;;;;;;16.95;8.30;;;;;;;15.46;52.36;98211.37;125619;1104;103062;-74
2021/04/29 07:59:39;;;;;;;17.57;7.63;;;;;;;15.68;52.76;98209.08;125549;1104;103109;-75
2021/04/29 08:02:07;;;;;;;21.50;8.63;;;;;;;15.57;52.85;98212.89;125658;1104;103083;-73
2021/04/29 08:04:34;;;;;;;17.47;7.40;;;;;;;15.50;53.90;98214.55;125549;1096;103141;-74
2021/04/29 08:07:01;;;;;;;17.90;7.37;;;;;;;15.27;53.21;98201.77;125593;1096;103043;-75
2021/04/29 08:09:34;;;;;;;17.48;7.70;;;;;;;15.14;53.85;98215.63;125609;1104;102987;-72
2021/04/29 08:12:01;;;;;;;14.97;6.87;;;;;;;15.08;54.09;98199.39;126222;1104;103113;-73
2021/04/29 08:14:29;;;;;;;13.40;6.37;;;;;;;15.00;53.71;98205.53;125594;1104;103459;-72
2021/04/29 08:16:56;;;;;;;16.97;7.00;;;;;;;15.07;53.35;98201.20;125582;1104;103106;-74
2021/04/29 08:19:24;;;;;;;19.40;7.57;;;;;;;15.07;54.09;98201.20;125533;1096;103587;-74
2021/04/29 08:21:51;;;;;;;19.47;7.57;;;;;;;15.05;53.46;98203.20;125589;1104;103117;-75
2021/04/29 08:24:18;;;;;;;21.10;7.67;;;;;;;15.15;54.12;98187.85;125557;1104;103008;-74
2021/04/29 08:26:51;;;;;;;16.33;7.43;;;;;;;15.18;53.87;98192.88;125587;1104;102990;-74
2021/04/29 08:29:18;;;;;;;20.57;7.87;;;;;;;15.23;53.75;98194.23;125534;1104;103050;-73
2021/04/29 08:31:46;;;;;;;19.20;7.40;;;;;;;15.26;53.89;98189.38;125507;1104;103016;-73
2021/04/29 08:34:13;;;;;;;16.27;6.80;;;;;;;15.28;54.15;98190.06;125517;1098;103007;-74
2021/04/29 08:36:41;;;;;;;19.67;7.13;;;;;;;15.30;54.02;98184.52;125528;1097;103059;-73
2021/04/29 08:39:09;;;;;;;19.27;6.90;;;;;;;15.30;54.07;98182.70;125559;1096;102981;-73
2021/04/29 08:41:36;;;;;;;18.83;7.23;;;;;;;15.62;53.94;98181.07;125629;1104;102975;-74
2021/04/29 08:44:04;;;;;;;16.17;7.03;;;;;;;15.99;54.19;98184.31;125509;1096;103036;-74
2021/04/29 08:46:32;;;;;;;15.93;6.27;;;;;;;16.07;54.08;98170.90;125549;1098;103112;-74
2021/04/29 08:49:00;;;;;;;14.70;6.20;;;;;;;16.25;53.83;98177.08;125549;1096;103146;-73
2021/04/29 08:51:27;;;;;;;14.57;6.30;;;;;;;16.44;54.08;98171.33;125587;1096;103035;-73
2021/04/29 08:53:56;;;;;;;14.47;6.50;;;;;;;16.75;54.12;98170.55;125578;1104;103072;-74
2021/04/29 08:56:26;;;;;;;17.83;6.73;;;;;;;17.28;53.55;98153.89;125556;1096;103039;-74
2021/04/29 08:58:55;;;;;;;14.33;5.93;;;;;;;17.23;53.87;98153.58;125557;1104;102990;-74
2021/04/29 09:01:23;;;;;;;17.23;5.80;;;;;;;17.34;53.32;98155.87;125514;1104;103081;-74
2021/04/29 09:03:51;;;;;;;12.87;5.40;;;;;;;17.67;53.70;98155.63;125591;1096;102987;-73
2021/04/29 09:06:40;;;;;;;19.13;8.00;;;;;;;17.74;53.24;98155.73;125492;1104;103097;-75
2021/04/29 09:09:07;;;;;;;17.33;6.07;;;;;;;17.60;53.33;98157.36;125508;1104;103454;-73
2021/04/29 09:11:46;;;;;;;23.00;9.17;;;;;;;17.38;53.00;98154.50;125525;1104;103483;-75
2021/04/29 09:14:30;;;;;;;15.93;6.58;;;;;;;17.21;53.29;98164.52;125557;1104;103062;-75
2021/04/29 09:16:58;;;;;;;14.30;5.13;;;;;;;17.37;52.98;98168.10;125553;1104;103097;-74
2021/04/29 09:19:29;;;;;;;11.47;5.13;;;;;;;17.30;52.91;98167.98;125605;1096;103085;-78
2021/04/29 09:21:57;;;;;;;13.10;5.30;;;;;;;17.11;52.74;98164.75;125557;1100;103259;-75
2021/04/29 09:24:36;;;;;;;15.53;5.60;;;;;;;17.05;53.00;98151.16;125558;1104;102987;-75
2021/04/29 09:27:13;;;;;;;18.93;6.47;;;;;;;17.26;52.67;98164.83;125529;1096;103056;-73
2021/04/29 09:29:58;;;;;;;14.83;5.57;;;;;;;17.16;52.71;98163.35;125516;1096;102979;-73
2021/04/29 09:32:32;;;;;;;13.93;6.27;;;;;;;16.96;52.78;98171.86;125571;1104;103128;-72
2021/04/29 09:35:00;;;;;;;;;;;;;;;16.77;52.65;98171.22;125594;1104;103620;-73
2021/04/29 09:37:40;;;;;;;15.57;6.90;;;;;;;16.58;52.62;98169.77;125554;1104;103195;-73
2021/04/29 09:40:16;;;;;;;12.67;6.37;;;;;;;16.46;52.65;98168.48;125534;1104;103019;-73
2021/04/29 09:42:46;;;;;;;14.60;7.43;;;;;;;16.36;52.55;98165.97;125559;1104;102991;-72
2021/04/29 09:45:27;;;;;;;20.13;8.40;;;;;;;16.31;52.73;98163.81;125540;1104;103113;-73
2021/04/29 09:47:54;;;;;;;14.70;7.00;;;;;;;16.34;52.83;98163.47;125559;1104;102985;-72
2021/04/29 09:50:28;;;;;;;18.53;8.57;;;;;;;16.33;52.70;98175.21;125609;1104;102984;-74
2021/04/29 09:52:58;;;;;;;19.53;8.90;;;;;;;16.41;52.80;98185.08;125610;1104;102990;-72
2021/04/29 09:55:28;;;;;;;17.70;7.80;;;;;;;16.32;52.70;98168.17;125605;1104;103458;-72
2021/04/29 09:58:08;;;;;;;17.97;8.20;;;;;;;16.21;52.87;98176.56;125590;1104;103138;-73
2021/04/29 10:00:37;;;;;;;15.45;7.85;;;;;;;16.06;52.80;98173.73;125511;1096;102976;-72
2021/04/29 10:03:05;;;;;;;17.60;8.00;;;;;;;16.00;52.99;98177.09;125570;1104;103013;-72
2021/04/29 10:05:37;;;;;;;15.80;7.80;;;;;;;15.91;53.16;98160.99;125554;1104;103135;-71
2021/04/29 10:08:15;;;;;;;14.15;7.55;;;;;;;15.76;53.03;98170.70;125588;1104;102959;-72
2021/04/29 10:10:49;;;;;;;17.00;7.70;;;;;;;15.65;53.11;98171.02;125559;1104;103032;-73
2021/04/29 10:13:18;;;;;;;;;;;;;;;15.58;53.10;98171.68;125553;1104;102992;-74
2021/04/29 10:15:45;;;;;;;14.00;7.50;;;;;;;15.51;53.23;98185.92;125603;1104;102988;-72
2021/04/29 10:18:22;;;;;;;18.90;7.87;;;;;;;15.45;53.01;98157.95;125538;1104;103009;-71
2021/04/29 10:20:50;;;;;;;19.17;8.63;;;;;;;15.39;53.35;98156.75;125582;1104;103101;-73
2021/04/29 10:23:20;;;;;;;21.10;9.23;;;;;;;15.36;53.41;98157.08;125516;1104;102761;-73
2021/04/29 10:25:53;;;;;;;21.77;9.70;;;;;;;15.33;53.38;98157.41;125548;1104;103018;-72
2021/04/29 10:28:43;;;;;;;19.25;9.90;;;;;;;15.36;53.63;98161.61;125572;1104;103103;-73
2021/04/29 10:31:20;;;;;;;19.40;9.65;;;;;;;15.40;53.53;98162.96;125532;1104;102983;-71
2021/04/29 10:33:54;;;;;;;17.53;9.17;;;;;;;15.41;54.13;98172.67;125587;1099;103052;-71
2021/04/29 10:36:35;;;;;;;20.23;10.30;;;;;;;15.32;53.92;98172.66;125643;1100;103084;-72
2021/04/29 10:39:14;;;;;;;21.73;10.70;;;;;;;15.19;53.74;98156.20;125607;1100;103095;-72
2021/04/29 10:41:47;;;;;;;20.55;10.45;;;;;;;15.13;54.20;98164.89;125623;1104;103467;-74
2021/04/29 10:44:19;;;;;;;19.03;9.53;;;;;;;15.00;54.13;98168.03;125559;1104;103080;-73
2021/04/29 10:46:49;;;;;;;19.95;10.43;;;;;;;14.97;54.21;98163.00;125593;1096;103009;-71
2021/04/29 10:49:17;;;;;;;20.00;10.83;;;;;;;15.04;54.20;98172.07;125589;1099;103129;-75
2021/04/29 10:51:48;;;;;;;22.17;10.60;;;;;;;15.12;54.29;98172.11;125594;1096;103546;-74
2021/04/29 10:54:19;;;;;;;18.50;9.27;;;;;;;15.16;54.26;98172.60;125566;1096;103147;-74
2021/04/29 10:57:07;;;;;;;20.10;10.00;;;;;;;15.24;54.64;98172.63;125563;1096;103146;-73
2021/04/29 10:59:45;;;;;;;19.50;10.43;;;;;;;15.22;54.76;98165.77;125584;1104;103010;-71
2021/04/29 11:02:31;;;;;;;19.77;9.97;;;;;;;15.08;54.58;98161.89;127621;1104;101615;-72
2021/04/29 11:04:59;;;;;;;17.87;9.50;;;;;;;14.98;54.84;98162.86;125589;1104;102985;-72
2021/04/29 11:07:29;;;;;;;18.67;9.60;;;;;;;14.89;54.75;98172.67;125607;1104;103135;-73
2021/04/29 11:10:08;;;;;;;19.37;9.23;;;;;;;14.87;55.34;98174.70;125516;1104;103142;-74
2021/04/29 11:12:49;;;;;;;20.17;9.87;;;;;;;14.74;54.93;98159.07;125590;1104;102978;-73
2021/04/29 11:15:28;;;;;;;20.90;10.93;;;;;;;14.75;55.09;98173.31;125650;1096;103056;-72
2021/04/29 11:18:00;;;;;;;20.15;9.80;;;;;;;14.75;55.07;98170.63;125595;1096;103084;-73
2021/04/29 11:20:41;;;;;;;19.93;10.10;;;;;;;14.67;55.51;98173.23;125661;1096;103080;-74
2021/04/29 11:23:11;;;;;;;17.97;9.10;;;;;;;14.62;55.64;98171.05;125547;1104;102984;-76
2021/04/29 11:25:39;;;;;;;19.75;10.55;;;;;;;14.53;55.54;98164.79;125621;1104;103078;-71